createdAt,value
2018-03-15T00:02:03.669Z,4.70
2018-03-15T00:04:37.310Z,4.70
2018-03-15T00:07:10.990Z,4.71
2018-03-15T00:09:44.550Z,4.63
2018-03-15T00:12:18.306Z,4.62
2018-03-15T00:14:51.918Z,4.64
2018-03-15T00:17:25.458Z,4.66
2018-03-15T00:19:59.082Z,4.60
2018-03-15T00:22:32.671Z,4.57
2018-03-15T00:25:06.254Z,4.56
2018-03-15T00:27:40.027Z,4.49
2018-03-15T00:30:13.835Z,4.59
2018-03-15T00:32:47.483Z,4.51
2018-03-15T00:35:21.042Z,4.55
2018-03-15T00:37:54.651Z,4.44
2018-03-15T00:40:28.278Z,4.43
2018-03-15T00:43:01.855Z,4.48
2018-03-15T00:45:35.699Z,4.44
2018-03-15T00:48:09.190Z,4.39
2018-03-15T00:50:42.776Z,4.39
2018-03-15T00:53:16.483Z,4.34
2018-03-15T00:55:50.263Z,4.33
2018-03-15T00:58:23.854Z,4.36
2018-03-15T01:00:57.627Z,4.34
2018-03-15T01:03:31.318Z,4.37
2018-03-15T01:06:05.009Z,4.31
2018-03-15T01:08:38.777Z,4.30
2018-03-15T01:11:12.362Z,4.32
2018-03-15T01:13:46.015Z,4.32
2018-03-15T01:16:19.664Z,4.33
2018-03-15T01:18:53.231Z,4.27
2018-03-15T01:21:26.823Z,4.23
2018-03-15T01:24:00.511Z,4.24
2018-03-15T01:26:34.400Z,4.24
2018-03-15T01:29:07.970Z,4.21
2018-03-15T01:31:41.527Z,4.20
2018-03-15T01:34:15.186Z,4.15
2018-03-15T01:36:48.794Z,4.21
2018-03-15T01:39:22.550Z,4.18
2018-03-15T01:41:56.254Z,4.14
2018-03-15T01:44:30.011Z,4.08
2018-03-15T01:47:03.786Z,4.08
2018-03-15T01:49:37.427Z,4.01
2018-03-15T01:52:10.963Z,3.99
2018-03-15T01:54:44.644Z,4.02
2018-03-15T01:57:18.423Z,4.04
2018-03-15T01:59:52.021Z,4.01
2018-03-15T02:02:25.813Z,3.99
2018-03-15T02:04:59.475Z,4.00
2018-03-15T02:07:33.239Z,3.97
2018-03-15T02:10:07.074Z,3.97
2018-03-15T02:12:40.841Z,3.87
2018-03-15T02:15:14.523Z,3.86
2018-03-15T02:17:48.066Z,3.91
2018-03-15T02:20:21.715Z,3.90
2018-03-15T02:22:55.398Z,3.86
2018-03-15T02:25:28.991Z,3.86
2018-03-15T02:28:02.558Z,3.85
2018-03-15T02:30:36.416Z,3.84
2018-03-15T02:33:10.145Z,3.83
2018-03-15T02:35:43.865Z,3.82
2018-03-15T02:38:17.631Z,3.81
2018-03-15T02:40:51.346Z,3.82
2018-03-15T02:43:25.004Z,3.76
2018-03-15T02:45:58.719Z,3.77
2018-03-15T02:48:32.549Z,3.73
2018-03-15T02:51:06.330Z,3.75
2018-03-15T02:53:40.008Z,3.81
2018-03-15T02:56:13.588Z,3.82
2018-03-15T02:58:47.260Z,3.76
2018-03-15T03:01:20.869Z,3.72
2018-03-15T03:03:54.595Z,3.71
2018-03-15T03:06:28.277Z,3.77
2018-03-15T03:09:01.908Z,3.81
2018-03-15T03:11:35.529Z,3.85
2018-03-15T03:14:09.165Z,3.87
2018-03-15T03:16:42.815Z,3.85
2018-03-15T03:19:16.605Z,3.85
2018-03-15T03:21:50.326Z,3.87
2018-03-15T03:24:23.975Z,3.90
2018-03-15T03:26:57.544Z,3.89
2018-03-15T03:29:31.096Z,3.85
2018-03-15T03:32:04.692Z,3.87
2018-03-15T03:34:38.261Z,3.84
2018-03-15T03:37:11.845Z,3.84
2018-03-15T03:39:45.464Z,3.86
2018-03-15T03:42:19.003Z,3.83
2018-03-15T03:44:52.974Z,3.84
2018-03-15T03:47:27.013Z,3.80
2018-03-15T03:50:00.622Z,3.86
2018-03-15T03:52:34.241Z,3.77
2018-03-15T03:55:07.915Z,3.79
2018-03-15T03:57:41.483Z,3.77
2018-03-15T04:00:15.050Z,3.75
2018-03-15T04:02:49.134Z,3.74
2018-03-15T04:05:22.776Z,3.69
2018-03-15T04:07:56.473Z,3.67
2018-03-15T04:10:30.078Z,3.70
2018-03-15T04:13:03.829Z,3.72
2018-03-15T04:15:37.441Z,3.70
2018-03-15T04:18:11.082Z,3.75
2018-03-15T04:20:44.753Z,3.69
2018-03-15T04:23:18.425Z,3.65
2018-03-15T04:25:52.228Z,3.62
2018-03-15T04:28:25.753Z,3.63
2018-03-15T04:30:59.350Z,3.62
2018-03-15T04:33:32.953Z,3.64
2018-03-15T04:36:06.543Z,3.63
2018-03-15T04:38:40.125Z,3.58
2018-03-15T04:41:13.876Z,3.60
2018-03-15T04:43:47.558Z,3.53
2018-03-15T04:46:21.146Z,3.53
2018-03-15T04:48:54.829Z,3.50
2018-03-15T04:51:28.445Z,3.52
2018-03-15T04:54:02.109Z,3.56
2018-03-15T04:56:35.852Z,3.57
2018-03-15T04:59:09.452Z,3.58
2018-03-15T05:01:43.050Z,3.60
2018-03-15T05:04:16.709Z,3.64
2018-03-15T05:06:50.435Z,3.63
2018-03-15T05:09:24.013Z,3.66
2018-03-15T05:11:57.526Z,3.60
2018-03-15T05:14:31.254Z,3.60
2018-03-15T05:17:04.795Z,3.57
2018-03-15T05:19:38.426Z,3.59
2018-03-15T05:22:12.017Z,3.56
2018-03-15T05:24:45.660Z,3.58
2018-03-15T05:27:19.578Z,3.53
2018-03-15T05:29:53.170Z,3.57
2018-03-15T05:32:26.765Z,3.55
2018-03-15T05:35:00.462Z,3.59
2018-03-15T05:37:34.110Z,3.56
2018-03-15T05:40:07.751Z,3.56
2018-03-15T05:42:41.282Z,3.63
2018-03-15T05:45:14.816Z,3.66
2018-03-15T05:47:48.649Z,3.67
2018-03-15T05:50:22.294Z,3.64
2018-03-15T05:52:55.898Z,3.64
2018-03-15T05:55:29.496Z,3.69
2018-03-15T05:58:03.009Z,3.81
2018-03-15T06:00:36.680Z,3.78
2018-03-15T06:03:10.236Z,3.79
2018-03-15T06:05:44.018Z,3.83
2018-03-15T06:08:17.630Z,3.84
2018-03-15T06:10:51.409Z,3.86
2018-03-15T06:13:25.016Z,3.89
2018-03-15T06:15:58.698Z,3.98
2018-03-15T06:18:32.283Z,4.07
2018-03-15T06:21:05.882Z,4.07
2018-03-15T06:23:39.474Z,4.09
2018-03-15T06:26:13.022Z,4.14
2018-03-15T06:28:46.584Z,4.25
2018-03-15T06:31:20.204Z,4.30
2018-03-15T06:33:53.818Z,4.40
2018-03-15T06:36:27.533Z,4.44
2018-03-15T06:39:01.191Z,4.46
2018-03-15T06:41:34.707Z,4.48
2018-03-15T06:44:08.365Z,4.56
2018-03-15T06:46:41.998Z,4.63
2018-03-15T06:49:15.628Z,4.71
2018-03-15T06:51:49.078Z,4.78
2018-03-15T06:54:22.594Z,4.87
2018-03-15T06:56:56.175Z,4.94
2018-03-15T06:59:29.826Z,4.92
2018-03-15T07:02:03.391Z,4.99
2018-03-15T07:04:37.056Z,5.20
2018-03-15T07:07:10.738Z,5.47
2018-03-15T07:09:44.305Z,5.81
2018-03-15T07:12:17.984Z,7.54
2018-03-15T07:14:51.614Z,9.16
2018-03-15T07:17:25.334Z,10.54
2018-03-15T07:19:58.835Z,10.55
2018-03-15T07:22:32.622Z,10.43
2018-03-15T07:25:06.269Z,10.19
2018-03-15T07:27:39.789Z,10.18
2018-03-15T07:30:13.454Z,9.81
2018-03-15T07:32:47.014Z,9.93
2018-03-15T07:35:20.649Z,9.85
2018-03-15T07:37:54.209Z,11.04
2018-03-15T07:40:27.914Z,11.94
2018-03-15T07:43:01.448Z,13.11
2018-03-15T07:45:35.073Z,13.93
2018-03-15T07:48:08.630Z,13.68
2018-03-15T07:50:42.157Z,13.83
2018-03-15T07:53:16.084Z,13.71
2018-03-15T07:55:49.623Z,14.10
2018-03-15T07:58:23.440Z,14.11
2018-03-15T08:00:57.116Z,13.71
2018-03-15T08:03:30.704Z,14.10
2018-03-15T08:06:04.471Z,13.60
2018-03-15T08:08:38.110Z,13.78
2018-03-15T08:11:11.633Z,12.89
2018-03-15T08:13:45.232Z,12.68
2018-03-15T08:16:18.855Z,13.04
2018-03-15T08:18:52.488Z,12.26
2018-03-15T08:21:26.113Z,11.48
2018-03-15T08:23:59.670Z,12.20
2018-03-15T08:26:33.223Z,12.38
2018-03-15T08:29:06.846Z,11.70
2018-03-15T08:31:40.410Z,11.56
2018-03-15T08:34:14.068Z,11.41
2018-03-15T08:36:47.601Z,11.31
2018-03-15T08:39:21.229Z,11.20
2018-03-15T08:41:54.958Z,11.35
2018-03-15T08:44:28.552Z,11.12
2018-03-15T08:47:02.373Z,11.27
2018-03-15T08:49:35.914Z,11.40
2018-03-15T08:52:09.438Z,11.32
2018-03-15T08:54:43.080Z,11.20
2018-03-15T08:57:16.714Z,11.79
2018-03-15T08:59:50.246Z,12.25
2018-03-15T09:02:24.042Z,12.17
2018-03-15T09:04:57.611Z,12.38
2018-03-15T09:07:31.270Z,12.20
2018-03-15T09:10:05.054Z,12.34
2018-03-15T09:12:38.630Z,12.76
2018-03-15T09:15:12.772Z,13.13
2018-03-15T09:17:46.257Z,12.62
2018-03-15T09:20:19.954Z,13.49
2018-03-15T09:22:53.418Z,14.18
2018-03-15T09:25:27.296Z,13.86
2018-03-15T09:28:00.864Z,13.60
2018-03-15T09:30:34.735Z,13.42
2018-03-15T09:33:08.356Z,13.77
2018-03-15T09:35:41.981Z,12.77
2018-03-15T09:38:15.615Z,13.30
2018-03-15T09:40:49.365Z,13.21
2018-03-15T09:43:23.057Z,13.43
2018-03-15T09:45:56.869Z,13.07
2018-03-15T09:48:30.326Z,12.37
2018-03-15T09:51:04.138Z,12.30
2018-03-15T09:53:37.713Z,12.09
2018-03-15T09:56:11.480Z,11.77
2018-03-15T09:58:45.265Z,12.03
2018-03-15T10:01:19.119Z,11.95
2018-03-15T10:03:52.972Z,12.12
2018-03-15T10:06:26.622Z,12.03
2018-03-15T10:09:00.238Z,12.12
2018-03-15T10:11:33.790Z,11.97
2018-03-15T10:14:07.513Z,11.99
2018-03-15T10:16:41.192Z,12.29
2018-03-15T10:19:14.865Z,12.19
2018-03-15T10:21:48.727Z,12.38
2018-03-15T10:24:22.415Z,12.28
2018-03-15T10:26:56.200Z,12.14
2018-03-15T10:29:29.873Z,11.88
2018-03-15T10:32:03.665Z,11.93
2018-03-15T10:34:37.367Z,11.83
2018-03-15T10:37:11.179Z,11.89
2018-03-15T10:39:44.832Z,11.94
2018-03-15T10:42:18.356Z,12.12
2018-03-15T10:44:51.937Z,12.15
2018-03-15T10:47:25.630Z,12.12
2018-03-15T10:49:59.361Z,12.28
2018-03-15T10:52:33.146Z,12.24
2018-03-15T10:55:06.674Z,12.55
2018-03-15T10:57:40.226Z,12.53
2018-03-15T11:00:13.981Z,12.70
2018-03-15T11:02:48.220Z,12.71
2018-03-15T11:05:27.547Z,12.92
2018-03-15T11:08:07.005Z,13.38
2018-03-15T11:10:40.681Z,13.71
2018-03-15T11:13:14.338Z,13.75
2018-03-15T11:15:47.922Z,13.93
2018-03-15T11:18:21.645Z,14.19
2018-03-15T11:20:55.390Z,13.75
2018-03-15T11:23:28.913Z,13.27
2018-03-15T11:26:02.526Z,12.94
2018-03-15T11:28:36.261Z,13.04
2018-03-15T11:31:10.019Z,13.00
2018-03-15T11:33:43.485Z,13.05
2018-03-15T11:36:17.170Z,13.23
2018-03-15T11:38:50.750Z,13.01
2018-03-15T11:41:24.361Z,12.85
2018-03-15T11:43:58.152Z,12.84
2018-03-15T11:46:31.922Z,13.01
2018-03-15T11:49:05.645Z,12.87
2018-03-15T11:51:39.238Z,12.78
2018-03-15T11:54:13.047Z,12.65
2018-03-15T11:56:46.621Z,12.59
2018-03-15T11:59:20.453Z,12.68
2018-03-15T12:01:54.105Z,12.74
2018-03-15T12:04:27.864Z,12.81
2018-03-15T12:07:01.377Z,12.81
2018-03-15T12:09:35.149Z,12.95
2018-03-15T12:12:08.871Z,12.92
2018-03-15T12:14:42.440Z,13.11
2018-03-15T12:17:16.122Z,13.03
2018-03-15T12:19:49.746Z,13.13
2018-03-15T12:22:23.297Z,13.07
2018-03-15T12:24:56.805Z,13.25
2018-03-15T12:27:30.525Z,13.11
2018-03-15T12:30:04.282Z,12.91
2018-03-15T12:32:37.894Z,12.77
2018-03-15T12:35:11.399Z,12.52
2018-03-15T12:37:44.940Z,12.52
2018-03-15T12:40:18.491Z,12.43
2018-03-15T12:42:52.252Z,12.43
2018-03-15T12:45:26.002Z,12.31
2018-03-15T12:47:59.533Z,12.30
2018-03-15T12:50:33.189Z,12.40
2018-03-15T12:53:06.790Z,12.43
2018-03-15T12:55:40.634Z,12.55
2018-03-15T12:58:14.430Z,12.42
2018-03-15T13:00:48.091Z,12.51
2018-03-15T13:03:21.622Z,12.45
2018-03-15T13:05:55.274Z,12.69
2018-03-15T13:08:28.954Z,12.72
2018-03-15T13:11:02.613Z,12.59
2018-03-15T13:13:36.248Z,12.59
2018-03-15T13:16:09.902Z,12.61
2018-03-15T13:18:43.499Z,12.74
2018-03-15T13:21:17.280Z,12.54
2018-03-15T13:23:50.999Z,12.54
2018-03-15T13:26:24.782Z,12.54
2018-03-15T13:28:58.323Z,12.69
2018-03-15T13:31:31.854Z,12.67
2018-03-15T13:34:05.694Z,12.75
2018-03-15T13:36:39.330Z,12.69
2018-03-15T13:39:12.926Z,12.83
2018-03-15T13:41:46.478Z,12.77
2018-03-15T13:44:20.583Z,12.78
2018-03-15T13:46:54.268Z,12.50
2018-03-15T13:49:27.961Z,12.40
2018-03-15T13:52:01.730Z,12.25
2018-03-15T13:54:35.524Z,12.34
2018-03-15T13:57:09.084Z,12.41
2018-03-15T13:59:42.633Z,12.33
2018-03-15T14:02:16.198Z,12.19
2018-03-15T14:04:49.708Z,12.24
2018-03-15T14:07:23.189Z,12.08
2018-03-15T14:09:56.766Z,12.06
2018-03-15T14:12:30.368Z,12.22
2018-03-15T14:15:03.909Z,12.25
2018-03-15T14:17:37.620Z,12.28
2018-03-15T14:20:11.472Z,12.12
2018-03-15T14:22:44.970Z,11.98
2018-03-15T14:25:18.477Z,12.03
2018-03-15T14:27:52.020Z,12.03
2018-03-15T14:30:25.766Z,12.07
2018-03-15T14:32:59.570Z,11.93
2018-03-15T14:35:33.158Z,11.97
2018-03-15T14:38:06.804Z,12.02
2018-03-15T14:40:40.546Z,11.85
2018-03-15T14:43:14.178Z,11.80
2018-03-15T14:45:47.866Z,11.68
2018-03-15T14:48:21.417Z,11.78
2018-03-15T14:50:54.956Z,11.66
2018-03-15T14:53:28.500Z,11.66
2018-03-15T14:56:02.040Z,11.70
2018-03-15T14:58:35.646Z,11.62
2018-03-15T15:01:09.443Z,11.47
2018-03-15T15:03:42.994Z,11.52
2018-03-15T15:06:16.829Z,11.45
2018-03-15T15:08:50.486Z,11.51
2018-03-15T15:11:24.042Z,11.50
2018-03-15T15:13:57.901Z,11.34
2018-03-15T15:16:31.436Z,11.32
2018-03-15T15:19:05.064Z,11.32
2018-03-15T15:21:38.742Z,11.33
2018-03-15T15:24:12.451Z,11.33
2018-03-15T15:26:45.929Z,11.29
2018-03-15T15:29:19.514Z,11.37
2018-03-15T15:31:53.058Z,11.53
2018-03-15T15:34:26.765Z,11.60
2018-03-15T15:37:00.481Z,11.68
2018-03-15T15:39:34.088Z,11.58
2018-03-15T15:42:07.609Z,11.55
2018-03-15T15:44:41.231Z,11.55
2018-03-15T15:47:14.918Z,11.57
2018-03-15T15:49:48.460Z,11.53
2018-03-15T15:52:22.103Z,11.54
2018-03-15T15:54:55.921Z,11.52
2018-03-15T15:57:29.446Z,11.41
2018-03-15T16:00:03.147Z,11.30
2018-03-15T16:02:36.893Z,11.25
2018-03-15T16:05:10.398Z,11.36
2018-03-15T16:07:44.113Z,11.29
2018-03-15T16:10:17.915Z,11.13
2018-03-15T16:12:51.454Z,11.17
2018-03-15T16:15:25.206Z,11.03
2018-03-15T16:17:58.704Z,10.95
2018-03-15T16:20:32.280Z,10.94
2018-03-15T16:23:06.029Z,10.85
2018-03-15T16:25:39.791Z,10.74
2018-03-15T16:28:13.356Z,10.77
2018-03-15T16:30:46.873Z,10.81
2018-03-15T16:33:20.580Z,10.81
2018-03-15T16:35:54.226Z,10.78
2018-03-15T16:38:27.723Z,10.70
2018-03-15T16:41:01.477Z,10.66
2018-03-15T16:43:35.044Z,10.64
2018-03-15T16:46:08.812Z,10.57
2018-03-15T16:48:42.286Z,10.60
2018-03-15T16:51:15.860Z,10.57
2018-03-15T16:53:49.428Z,10.48
2018-03-15T16:56:22.934Z,10.52
2018-03-15T16:58:56.512Z,10.52
2018-03-15T17:01:30.256Z,10.39
2018-03-15T17:04:03.792Z,10.20
2018-03-15T17:06:37.514Z,10.33
2018-03-15T17:09:11.236Z,10.20
2018-03-15T17:11:45.305Z,10.19
2018-03-15T17:14:18.905Z,10.28
2018-03-15T17:16:52.514Z,10.31
2018-03-15T17:19:26.146Z,10.20
2018-03-15T17:21:59.710Z,10.13
2018-03-15T17:24:33.530Z,10.07
2018-03-15T17:33:17.993Z,10.06
2018-03-15T17:35:51.651Z,9.96
2018-03-15T17:38:25.449Z,9.90
2018-03-15T17:40:59.100Z,9.87
2018-03-15T17:43:32.618Z,9.74
2018-03-15T17:46:06.270Z,9.65
2018-03-15T17:48:39.935Z,9.72
2018-03-15T17:51:13.590Z,9.71
2018-03-15T17:53:47.169Z,9.71
2018-03-15T17:56:20.746Z,9.65
2018-03-15T17:58:54.357Z,9.61
2018-03-15T18:01:28.014Z,9.63
2018-03-15T18:04:01.639Z,9.64
2018-03-15T18:06:35.429Z,9.58
2018-03-15T18:09:09.005Z,9.54
2018-03-15T18:11:42.646Z,9.45
2018-03-15T18:14:16.250Z,9.56
2018-03-15T18:16:49.806Z,9.63
2018-03-15T18:19:23.409Z,9.63
2018-03-15T18:21:56.965Z,9.66
2018-03-15T18:24:30.518Z,9.68
2018-03-15T18:27:04.282Z,9.68
2018-03-15T18:29:38.082Z,9.72
2018-03-15T18:32:12.485Z,9.81
2018-03-15T18:34:46.024Z,9.83
2018-03-15T18:37:20.677Z,9.83
2018-03-15T18:39:54.230Z,9.78
2018-03-15T18:42:27.825Z,9.81
2018-03-15T18:45:01.410Z,9.74
2018-03-15T18:47:35.011Z,9.80
2018-03-15T18:50:08.498Z,9.70
2018-03-15T18:52:42.063Z,9.69
2018-03-15T18:55:15.594Z,9.70
2018-03-15T18:57:49.181Z,9.70
2018-03-15T19:00:22.960Z,9.57
2018-03-15T19:02:56.602Z,9.33
2018-03-15T19:05:30.188Z,9.12
2018-03-15T19:08:03.914Z,9.10
2018-03-15T19:10:37.506Z,8.94
2018-03-15T19:13:11.074Z,8.62
2018-03-15T19:15:44.862Z,8.42
2018-03-15T19:18:18.489Z,8.24
2018-03-15T19:20:52.092Z,8.02
2018-03-15T19:23:25.842Z,7.86
2018-03-15T19:25:59.382Z,7.69
2018-03-15T19:28:32.988Z,7.45
2018-03-15T19:31:06.894Z,7.29
2018-03-15T19:33:40.499Z,7.12
2018-03-15T19:36:14.265Z,7.01
2018-03-15T19:38:47.914Z,6.89
2018-03-15T19:41:21.669Z,6.84
2018-03-15T19:43:55.182Z,6.74
2018-03-15T19:46:28.868Z,6.72
2018-03-15T19:49:02.542Z,6.60
2018-03-15T19:51:36.119Z,6.51
2018-03-15T19:54:09.917Z,6.50
2018-03-15T19:56:43.643Z,6.42
2018-03-15T19:59:17.202Z,6.40
2018-03-15T20:01:50.918Z,6.35
2018-03-15T20:04:24.524Z,6.37
2018-03-15T20:06:58.087Z,6.37
2018-03-15T20:09:31.802Z,6.31
2018-03-15T20:12:05.646Z,6.27
2018-03-15T20:14:39.302Z,6.33
2018-03-15T20:17:26.832Z,6.32
2018-03-15T20:20:00.518Z,6.27
2018-03-15T20:22:39.786Z,6.29
2018-03-15T20:25:13.454Z,6.29
2018-03-15T20:27:53.017Z,6.23
2018-03-15T20:30:26.688Z,6.29
2018-03-15T20:33:06.065Z,6.22
2018-03-15T20:35:39.778Z,6.23
2018-03-15T20:38:13.361Z,6.24
2018-03-15T20:40:52.550Z,6.22
2018-03-15T20:43:26.231Z,6.16
2018-03-15T20:46:05.720Z,6.18
2018-03-15T20:48:45.283Z,6.16
2018-03-15T20:51:18.929Z,6.22
2018-03-15T20:53:52.622Z,6.19
2018-03-15T20:56:26.382Z,6.25
2018-03-15T20:58:59.924Z,6.23
2018-03-15T21:01:33.504Z,6.16
2018-03-15T21:04:07.105Z,6.25
2018-03-15T21:06:40.883Z,6.17
2018-03-15T21:09:14.434Z,6.13
2018-03-15T21:11:48.145Z,6.11
2018-03-15T21:14:21.954Z,6.15
2018-03-15T21:16:55.610Z,6.16
2018-03-15T21:19:29.189Z,6.11
2018-03-15T21:22:02.900Z,6.14
2018-03-15T21:24:36.545Z,6.12
2018-03-15T21:27:10.413Z,6.17
2018-03-15T21:29:43.914Z,6.14
2018-03-15T21:32:17.660Z,6.13
2018-03-15T21:34:51.184Z,6.15
2018-03-15T21:37:24.852Z,6.13
2018-03-15T21:39:58.437Z,6.16
2018-03-15T21:42:32.023Z,6.18
2018-03-15T21:45:05.582Z,6.18
2018-03-15T21:47:39.205Z,6.15
2018-03-15T21:50:12.985Z,6.12
2018-03-15T21:52:46.579Z,6.12
2018-03-15T21:55:20.192Z,6.11
2018-03-15T21:57:53.948Z,6.11
2018-03-15T22:00:27.758Z,6.18
2018-03-15T22:03:01.801Z,6.18
2018-03-15T22:05:35.412Z,6.21
2018-03-15T22:08:09.176Z,6.22
2018-03-15T22:10:42.998Z,6.22
2018-03-15T22:13:16.584Z,6.21
2018-03-15T22:15:50.349Z,6.21
2018-03-15T22:18:23.988Z,6.20
2018-03-15T22:20:57.668Z,6.21
2018-03-15T22:23:31.262Z,6.29
2018-03-15T22:26:04.887Z,6.31
2018-03-15T22:28:38.992Z,6.28
2018-03-15T22:31:12.539Z,6.25
2018-03-15T22:33:46.253Z,6.21
2018-03-15T22:36:20.049Z,6.25
2018-03-15T22:38:53.653Z,6.21
2018-03-15T22:41:27.195Z,6.26
2018-03-15T22:44:00.827Z,6.28
2018-03-15T22:46:34.444Z,6.25
2018-03-15T22:49:08.066Z,6.25
2018-03-15T22:51:41.692Z,6.24
2018-03-15T22:54:15.548Z,6.28
2018-03-15T22:56:49.239Z,6.25
2018-03-15T22:59:23.032Z,6.21
2018-03-15T23:01:56.803Z,6.26
2018-03-15T23:04:30.412Z,6.19
2018-03-15T23:07:04.225Z,6.18
2018-03-15T23:09:37.854Z,6.19
2018-03-15T23:12:11.550Z,6.23
2018-03-15T23:14:45.179Z,6.22
2018-03-15T23:17:18.765Z,6.20
2018-03-15T23:19:52.447Z,6.22
2018-03-15T23:22:25.958Z,6.18
2018-03-15T23:24:59.774Z,6.17
2018-03-15T23:27:33.468Z,6.18
2018-03-15T23:30:07.000Z,6.14
2018-03-15T23:32:40.703Z,6.13
2018-03-15T23:35:14.281Z,6.13
2018-03-15T23:37:47.970Z,6.14
2018-03-15T23:40:21.993Z,6.10
2018-03-15T23:42:56.155Z,6.09
2018-03-15T23:45:29.864Z,6.10
2018-03-15T23:48:03.452Z,6.06
2018-03-15T23:50:37.323Z,6.04
2018-03-15T23:53:11.080Z,6.06
2018-03-15T23:55:44.662Z,6.05
2018-03-15T23:58:18.538Z,6.09
